Flight Track Log - Related Links

Times and Time Zones

All times are in EDT time to prevent confusion due to time zone crossing. See the SWA276 flight status page for this flight to view local times or setup timezone preferences in your user account.

Time Position Orientation Groundspeed Altitude Reporting Facility
EDT Latitude Longitude Course Direction KTS MPH feet Rate Location/Type
Wed 06:10:54 PM 36.0758 -115.1178 89° East 162 186 3,500  Level Los Angeles Center
Wed 06:11:36 PM 36.0764 -115.0697 89° East 195 224 4,800 1,690 Climbing Los Angeles Center
Wed 06:12:05 PM 36.0769 -115.0339 89° East 195 224 5,500 1,869 Climbing Los Angeles Center
Wed 06:12:37 PM 36.0764 -114.9817 91° East 267 307 6,700 2,667 Climbing Los Angeles Center
Wed 06:13:08 PM 36.0767 -114.9389 90° East 265 305 8,300 3,061 Climbing Los Angeles Center
Wed 06:13:26 PM 36.0839 -114.9075 74° East 279 321 9,200 2,613 Climbing Los Angeles Center
Wed 06:14:10 PM 36.0939 -114.8431 79° East 284 327 11,000 3,049 Climbing Los Angeles Center
Wed 06:14:27 PM 36.1006 -114.8061 77° East 294 338 12,300 3,097 Climbing Los Angeles Center
Wed 06:15:12 PM 36.1097 -114.7414 80° East 298 343 14,200 2,355 Climbing Los Angeles Center
Wed 06:16:14 PM 36.1375 -114.6433 71° East 302 348 16,500 1,839 Climbing Los Angeles Center
Wed 06:17:16 PM 36.1467 -114.5256 84° East 341 392 18,000 1,742 Climbing Los Angeles Center
Wed 06:18:18 PM 36.1725 -114.3692 78° East 382 440 20,100 1,984 Climbing Los Angeles Center
Wed 06:19:20 PM 36.1947 -114.2297 79° East 409 471 22,100 1,839 Climbing Los Angeles Center
Wed 06:20:22 PM 36.2128 -114.0844 81° East 423 487 23,900 1,645 Climbing Los Angeles Center
Wed 06:21:24 PM 36.2294 -113.9356 82° East 435 501 25,500 1,392 Climbing Los Angeles Center
Wed 06:22:27 PM 36.2475 -113.7828 82° East 446 513 26,800 1,008 Climbing Los Angeles Center
Wed 06:23:29 PM 36.2708 -113.5892 81° East 471 542 27,600 919 Climbing Los Angeles Center
Wed 06:24:31 PM 36.2894 -113.4203 82° East 490 564 28,700 1,161 Climbing Los Angeles Center
Wed 06:25:33 PM 36.3097 -113.2492 82° East 500 575 30,000 1,210 Climbing Los Angeles Center
Wed 06:26:35 PM 36.3567 -113.1028 68° East 502 578 31,200 1,113 Climbing Los Angeles Center
Wed 06:27:37 PM 36.4261 -112.9175 65° Northeast 498 573 32,300 968 Climbing Los Angeles Center
Wed 06:28:39 PM 36.4850 -112.7594 65° Northeast 504 580 33,200 968 Climbing Los Angeles Center
Wed 06:29:41 PM 36.5433 -112.5992 66° East 510 587 34,300 871 Climbing Los Angeles Center
Wed 06:30:43 PM 36.6006 -112.4419 66° East 504 580 35,000 336 Climbing Los Angeles Center
Wed 06:31:46 PM 36.6572 -112.2850 66° East 501 577 35,000  Level Los Angeles Center
Wed 06:32:48 PM 36.7264 -112.0953 65° Northeast 503 579 35,000  Level Los Angeles Center
Wed 06:33:14 PM 36.7511 -112.0322 64° Northeast 505 581 35,000  Level Denver Center
Wed 06:34:15 PM 36.8081 -111.8739 66° East 504 580 35,000  Level Denver Center
Wed 06:35:17 PM 36.8647 -111.7167 66° East 501 577 35,000  Level Denver Center
Wed 06:36:18 PM 36.9203 -111.5575 66° East 502 578 35,000  Level Denver Center
Wed 06:37:20 PM 36.9778 -111.3975 66° East 505 581 35,000  Level Denver Center
Wed 06:38:21 PM 37.0422 -111.2067 67° East 502 578 35,000  Level Denver Center
Wed 06:39:23 PM 37.0989 -111.0444 66° East 510 587 35,000  Level Denver Center
Wed 06:40:24 PM 37.1550 -110.8822 66° East 511 588 35,000  Level Denver Center
Wed 06:41:26 PM 37.2111 -110.7192 67° East 511 588 35,000  Level Denver Center
Wed 06:42:27 PM 37.2681 -110.5558 66° East 513 590 35,000  Level Denver Center
Wed 06:43:29 PM 37.3228 -110.3936 67° East 509 586 35,000  Level Denver Center
Wed 06:44:30 PM 37.3775 -110.2300 67° East 509 586 35,000  Level Denver Center
Wed 06:45:31 PM 37.4419 -110.0403 67° East 508 585 35,000  Level Denver Center
Wed 06:46:33 PM 37.4950 -109.8819 67° East 511 588 35,000  Level Denver Center
Wed 06:47:34 PM 37.5469 -109.7250 67° East 508 585 35,000  Level Denver Center
Wed 06:48:35 PM 37.6083 -109.5422 67° East 506 582 35,000  Level Denver Center
Wed 06:49:37 PM 37.6606 -109.3836 67° East 509 586 35,000  Level Denver Center
Wed 06:50:38 PM 37.7211 -109.2003 67° East 508 585 35,000  Level Denver Center
Wed 06:51:52 PM 37.7728 -109.0414 68° East 509 586 35,000  Level Denver Center
Wed 06:52:53 PM 37.8481 -108.8331 65° Northeast 511 588 35,000  Level Denver Center
Wed 06:53:55 PM 37.9136 -108.6814 61° Northeast 513 590 35,000  Level Denver Center
Wed 06:54:56 PM 37.9786 -108.5300 61° Northeast 512 589 35,000  Level Denver Center
Wed 06:55:57 PM 38.0550 -108.3575 61° Northeast 508 585 35,000  Level Denver Center
Wed 06:56:59 PM 38.1194 -108.2064 62° Northeast 510 587 35,000  Level Denver Center
Wed 06:58:00 PM 38.1944 -108.0308 61° Northeast 507 583 35,000  Level Denver Center
Wed 06:59:01 PM 38.2597 -107.8775 61° Northeast 512 589 35,000  Level Denver Center
Wed 07:00:03 PM 38.3322 -107.7033 62° Northeast 504 580 35,000  Level Denver Center
Wed 07:01:04 PM 38.3972 -107.5506 61° Northeast 511 588 35,000  Level Denver Center
Wed 07:02:05 PM 38.4600 -107.3986 62° Northeast 508 585 35,000  Level Denver Center
Wed 07:03:07 PM 38.5347 -107.2208 62° Northeast 511 588 35,000  Level Denver Center
Wed 07:04:08 PM 38.5992 -107.0650 62° Northeast 515 593 35,000  Level Denver Center
Wed 07:05:09 PM 38.6650 -106.9053 62° Northeast 511 588 35,000  Level Denver Center
Wed 07:06:11 PM 38.7319 -106.7406 62° Northeast 522 601 35,000  Level Denver Center
Wed 07:07:12 PM 38.7969 -106.5786 63° Northeast 514 592 35,000  Level Denver Center
Wed 07:08:13 PM 38.8619 -106.4175 63° Northeast 513 590 35,000  Level Denver Center
Wed 07:09:14 PM 38.9244 -106.2628 63° Northeast 516 594 35,000  Level Denver Center
Wed 07:10:16 PM 39.0056 -106.0606 63° Northeast 516 594 35,000  Level Denver Center
Wed 07:11:17 PM 39.0719 -105.8933 63° Northeast 519 597 35,000  Level Denver Center
Wed 07:12:18 PM 39.1375 -105.7267 63° Northeast 519 597 35,000  Level Denver Center
Wed 07:13:19 PM 39.2033 -105.5581 63° Northeast 521 600 35,000  Level Denver Center
Wed 07:14:20 PM 39.2725 -105.3886 62° Northeast 530 610 35,000  Level Denver Center
Wed 07:15:22 PM 39.3369 -105.2203 64° Northeast 518 596 35,000  Level Denver Center
Wed 07:16:23 PM 39.4022 -105.0517 63° Northeast 516 594 35,000  Level Denver Center
Wed 07:17:24 PM 39.4664 -104.8850 63° Northeast 515 593 35,000  Level Denver Center
Wed 07:18:25 PM 39.5308 -104.7181 63° Northeast 520 598 35,000  Level Denver Center
Wed 07:19:26 PM 39.6025 -104.5264 64° Northeast 527 606 35,000  Level Denver Center
Wed 07:20:27 PM 39.6667 -104.3558 64° Northeast 526 605 35,000  Level Denver Center
Wed 07:21:29 PM 39.7292 -104.1894 64° Northeast 510 587 35,000  Level Denver Center
Wed 07:22:30 PM 39.7917 -104.0194 64° Northeast 516 594 35,000  Level Denver Center
Wed 07:23:31 PM 39.8542 -103.8514 64° Northeast 511 588 35,000  Level Denver Center
Wed 07:24:32 PM 39.9178 -103.6839 64° Northeast 503 579 35,000  Level Denver Center
Wed 07:25:34 PM 39.9803 -103.5142 64° Northeast 513 590 35,000  Level Denver Center
Wed 07:26:35 PM 40.0414 -103.3436 65° Northeast 516 594 35,000  Level Denver Center
Wed 07:27:36 PM 40.1050 -103.1728 64° Northeast 518 596 35,000  Level Denver Center
Wed 07:28:37 PM 40.1656 -103.0003 65° Northeast 519 597 35,000  Level Denver Center
Wed 07:29:39 PM 40.2247 -102.8358 65° Northeast 498 573 35,000  Level Denver Center
Wed 07:30:40 PM 40.2897 -102.6553 65° Northeast 498 573 35,000  Level Denver Center
Wed 07:31:41 PM 40.3464 -102.4964 65° Northeast 503 579 35,000  Level Denver Center
Wed 07:32:42 PM 40.4131 -102.3069 65° Northeast 511 588 35,000  Level Denver Center
Wed 07:33:44 PM 40.4686 -102.1453 66° East 511 588 35,000  Level Denver Center
Wed 07:34:45 PM 40.5275 -101.9797 65° Northeast 521 600 35,000  Level Denver Center
Wed 07:35:46 PM 40.5947 -101.7853 65° Northeast 524 603 35,000  Level Denver Center
Wed 07:36:48 PM 40.6506 -101.6231 66° East 512 589 35,000  Level Denver Center
Wed 07:37:49 PM 40.7153 -101.4328 66° East 510 587 35,000  Level Denver Center
Wed 07:38:50 PM 40.7697 -101.2694 66° East 509 586 35,000  Level Denver Center
Wed 07:39:52 PM 40.8258 -101.1053 66° East 512 589 35,000  Level Denver Center
Wed 07:40:53 PM 40.8917 -100.9117 66° East 512 589 35,000  Level Denver Center
Wed 07:41:55 PM 40.9489 -100.7411 66° East 514 592 35,000  Level Denver Center
Wed 07:42:56 PM 41.0050 -100.5714 66° East 517 595 35,000  Level Denver Center
Wed 07:43:57 PM 41.0686 -100.3756 67° East 516 594 35,000  Level Denver Center
Wed 07:44:59 PM 41.1144 -100.2369 66° East 515 593 35,000  Level Denver Center
Wed 07:46:00 PM 41.1772 -100.0433 67° East 513 590 35,000  Level Denver Center
Wed 07:47:02 PM 41.2386 -99.8519 67° East 507 583 35,000  Level Denver Center
Wed 07:48:03 PM 41.2919 -99.6878 67° East 505 581 35,000  Level Denver Center
Wed 07:49:04 PM 41.3350 -99.5533 67° East 500 575 35,000  Level Denver Center
Wed 07:50:06 PM 41.3939 -99.3667 67° East 496 571 35,000  Level Denver Center
Wed 07:51:07 PM 41.4578 -99.1642 67° East 491 565 35,000  Level Denver Center
Wed 07:51:50 PM 41.4972 -99.0431 66° East 488 562 35,000  Level Minneapolis Center
Wed 07:52:52 PM 41.5481 -98.8786 68° East 484 557 35,000  Level Minneapolis Center
Wed 07:53:54 PM 41.5933 -98.7311 68° East 482 555 35,000  Level Minneapolis Center
Wed 07:54:55 PM 41.6544 -98.5314 68° East 480 552 35,000  Level Minneapolis Center
Wed 07:55:57 PM 41.7039 -98.3669 68° East 477 549 35,000  Level Minneapolis Center
Wed 07:56:59 PM 41.7544 -98.2017 68° East 477 549 35,000  Level Minneapolis Center
Wed 07:58:01 PM 41.7989 -98.0550 68° East 477 549 35,000  Level Minneapolis Center
Wed 07:59:02 PM 41.8578 -97.8583 68° East 475 547 35,000  Level Minneapolis Center
Wed 08:00:04 PM 41.9067 -97.6969 68° East 470 541 35,000  Level Minneapolis Center
Wed 08:01:06 PM 41.9539 -97.5361 68° East 465 535 35,000  Level Minneapolis Center
Wed 08:02:07 PM 42.0006 -97.3747 69° East 463 533 35,000  Level Minneapolis Center
Wed 08:03:09 PM 42.0497 -97.2100 68° East 470 541 35,000  Level Minneapolis Center
Wed 08:04:11 PM 42.0975 -97.0447 69° East 473 544 35,000  Level Minneapolis Center
Wed 08:05:12 PM 42.1442 -96.8794 69° East 472 543 35,000  Level Minneapolis Center
Wed 08:06:14 PM 42.1928 -96.7131 68° East 474 545 35,000  Level Minneapolis Center
Wed 08:07:16 PM 42.2397 -96.5447 69° East 476 548 35,000 435 Level Minneapolis Center
Wed 08:08:18 PM 42.2978 -96.3419 69° East 480 552 35,900 829 Climbing Minneapolis Center
Wed 08:09:19 PM 42.3444 -96.1725 70° East 481 554 36,700 537 Climbing Minneapolis Center
Wed 08:10:21 PM 42.3925 -96.0014 69° East 483 556 37,000 145 Climbing Minneapolis Center
Wed 08:11:23 PM 42.4406 -95.8300 69° East 487 560 37,000  Level Minneapolis Center
Wed 08:12:24 PM 42.4872 -95.6578 70° East 487 560 37,000  Level Minneapolis Center
Wed 08:13:26 PM 42.5344 -95.4858 70° East 486 559 37,000  Level Minneapolis Center
Wed 08:14:28 PM 42.5875 -95.3153 67° East 488 562 37,000  Level Minneapolis Center
Wed 08:15:29 PM 42.6406 -95.1489 67° East 483 556 37,000  Level Minneapolis Center
Wed 08:16:31 PM 42.6939 -94.9797 67° East 485 558 37,000  Level Minneapolis Center
Wed 08:17:33 PM 42.7522 -94.7931 67° East 482 555 37,000  Level Minneapolis Center
Wed 08:18:35 PM 42.8050 -94.6244 67° East 483 556 37,000  Level Minneapolis Center
Wed 08:19:36 PM 42.8603 -94.4428 67° East 499 574 37,000  Level Minneapolis Center
Wed 08:20:38 PM 42.9122 -94.2731 67° East 492 566 37,000  Level Minneapolis Center
Wed 08:21:40 PM 42.9628 -94.1011 68° East 492 566 37,000  Level Minneapolis Center
Wed 08:22:42 PM 43.0269 -93.8956 67° East 493 567 37,000  Level Minneapolis Center
Wed 08:23:44 PM 43.0775 -93.7222 68° East 494 568 37,000  Level Minneapolis Center
Wed 08:24:45 PM 43.1292 -93.5492 68° East 495 570 37,000  Level Minneapolis Center
Wed 08:25:47 PM 43.1803 -93.3747 68° East 497 572 37,000  Level Minneapolis Center
Wed 08:26:49 PM 43.2322 -93.1969 68° East 503 579 37,000  Level Minneapolis Center
Wed 08:27:51 PM 43.2856 -93.0167 68° East 509 586 37,000  Level Minneapolis Center
Wed 08:28:53 PM 43.3472 -92.8003 69° East 510 587 37,000  Level Minneapolis Center
Wed 08:29:55 PM 43.4000 -92.6189 68° East 513 590 37,000  Level Minneapolis Center
Wed 08:30:57 PM 43.4514 -92.4356 69° East 515 593 37,000  Level Minneapolis Center
Wed 08:31:58 PM 43.5044 -92.2517 68° East 518 596 37,000  Level Minneapolis Center
Wed 08:33:00 PM 43.5581 -92.0619 69° East 529 609 37,000  Level Minneapolis Center
Wed 08:34:02 PM 43.6097 -91.8750 69° East 525 604 37,000  Level Minneapolis Center
Wed 08:35:04 PM 43.6722 -91.6486 69° East 527 606 37,000  Level Minneapolis Center
Wed 08:36:06 PM 43.7239 -91.4617 69° East 525 604 37,000  Level Minneapolis Center
Wed 08:37:08 PM 43.7747 -91.2750 69° East 523 602 37,000  Level Minneapolis Center
Wed 08:37:57 PM 43.8158 -91.1247 69° East 523 602 37,000  Level Minneapolis Center
Wed 08:39:00 PM 43.8656 -90.9372 70° East 523 602 37,000  Level Minneapolis Center
Wed 08:39:50 PM 43.9053 -90.7878 70° East 521 600 37,000  Level Minneapolis Center
Wed 08:40:52 PM 43.9272 -90.5600 82° East 497 572 37,000  Level Minneapolis Center
Wed 08:41:54 PM 43.9050 -90.3872 100° East 486 559 37,000  Level Minneapolis Center
Wed 08:43:08 PM 43.8781 -90.1381 98° East 490 564 37,000  Level Minneapolis Center
Wed 08:43:58 PM 43.8611 -89.9814 98° East 494 568 37,000  Level Minneapolis Center
Wed 08:45:12 PM 43.8344 -89.7631 100° East 493 567 37,000  Level Minneapolis Center
Wed 08:46:02 PM 43.8161 -89.6069 99° East 494 568 37,000  Level Minneapolis Center
Wed 08:47:04 PM 43.7936 -89.4183 99° East 494 568 37,000  Level Minneapolis Center
Wed 08:48:18 PM 43.7639 -89.1681 99° East 493 567 37,000  Level Minneapolis Center
Wed 08:49:08 PM 43.7442 -89.0100 100° East 497 572 37,000  Level Minneapolis Center
Wed 08:50:10 PM 43.7208 -88.8219 100° East 496 571 37,000  Level Minneapolis Center
Wed 08:51:24 PM 43.6944 -88.6008 99° East 495 570 37,000  Level Minneapolis Center
Wed 08:52:14 PM 43.6742 -88.4408 100° East 497 572 37,000  Level Minneapolis Center
Wed 08:53:16 PM 43.6489 -88.2483 100° East 502 578 37,000  Level Minneapolis Center
Wed 08:54:18 PM 43.6231 -88.0586 101° East 499 574 37,000  Level Minneapolis Center
Wed 08:54:41 PM 43.6156 -87.9950 99° East 499 574 37,000  Level Chicago Center
Wed 08:55:42 PM 43.5856 -87.7722 100° East 504 580 37,000  Level Chicago Center
Wed 08:56:44 PM 43.5594 -87.5822 101° East 504 580 37,000  Level Chicago Center
Wed 08:57:45 PM 43.5331 -87.3933 101° East 503 579 37,000  Level Chicago Center
Wed 08:58:46 PM 43.5067 -87.2089 101° East 502 578 37,000  Level Chicago Center
Wed 08:59:48 PM 43.4814 -87.0200 100° East 501 577 37,000  Level Chicago Center
Wed 09:00:49 PM 43.4536 -86.8339 102° East 499 574 37,000  Level Chicago Center
Wed 09:01:50 PM 43.4275 -86.6469 101° East 497 572 37,000  Level Chicago Center
Wed 09:02:49 PM 43.4003 -86.4594 101° East 497 572 37,000  Level Minneapolis Center
Wed 09:03:51 PM 43.3731 -86.2711 101° East 498 573 37,000  Level Minneapolis Center
Wed 09:04:54 PM 43.3450 -86.0822 101° East 503 579 37,000  Level Chicago Center
Wed 09:05:55 PM 43.3167 -85.8914 101° East 505 581 37,000  Level Chicago Center
Wed 09:06:57 PM 43.2869 -85.7025 102° East 502 578 37,000  Level Chicago Center
Wed 09:07:58 PM 43.2575 -85.5133 102° East 503 579 37,000  Level Chicago Center
Wed 09:08:59 PM 43.2217 -85.2867 102° East 505 581 37,000  Level Chicago Center
Wed 09:09:15 PM 43.2125 -85.2383 105° East 508 585 37,000  Level Cleveland Center
Wed 09:10:15 PM 43.1844 -85.0539 102° East 508 585 37,000  Level Cleveland Center
Wed 09:11:15 PM 43.1519 -84.8664 103° East 503 579 37,000  Level Cleveland Center
Wed 09:12:15 PM 43.1211 -84.6767 102° East 503 579 37,000  Level Cleveland Center
Wed 09:13:05 PM 43.1028 -84.5367 100° East 502 578 37,000  Level Chicago Center
Wed 09:14:15 PM 43.0619 -84.3317 105° East 490 564 37,000  Level Cleveland Center
Wed 09:15:15 PM 43.0347 -84.1453 101° East 485 558 37,000  Level Cleveland Center
Wed 09:16:15 PM 43.0025 -83.9617 103° East 490 564 37,000  Level Cleveland Center
Wed 09:17:15 PM 42.9683 -83.7781 104° East 495 570 37,000  Level Cleveland Center
Wed 09:18:15 PM 42.8758 -83.6544 136° Southeast 454 522 37,000  Level Cleveland Center
Wed 09:19:15 PM 42.7761 -83.5561 144° Southeast 447 514 37,000  Level Cleveland Center
Wed 09:20:15 PM 42.6725 -83.4525 144° Southeast 453 521 37,000 -150 Level Cleveland Center
Wed 09:21:15 PM 42.5606 -83.3372 143° Southeast 459 528 36,700 -650 Descending Cleveland Center
Wed 09:22:15 PM 42.4528 -83.2286 143° Southeast 470 541 35,700 -1,000 Descending Cleveland Center
Wed 09:23:15 PM 42.3467 -83.1228 144° Southeast 475 547 34,700 -950 Descending Cleveland Center
Wed 09:24:15 PM 42.2383 -83.0175 144° Southeast 480 552 33,800 -1,450 Descending Cleveland Center
Wed 09:25:15 PM 42.1322 -82.9128 144° Southeast 486 559 31,800 -1,550 Descending Cleveland Center
Wed 09:26:15 PM 42.0392 -82.7750 132° Southeast 486 559 30,700 -1,050 Descending Cleveland Center
Wed 09:27:15 PM 41.9542 -82.6297 128° Southeast 486 559 29,700 -850 Descending Cleveland Center
Wed 09:28:15 PM 41.8756 -82.4822 126° Southeast 486 559 29,000 -350 Descending Cleveland Center
Wed 09:29:15 PM 41.7964 -82.3322 125° Southeast 491 565 29,000  Level Cleveland Center
Wed 09:30:15 PM 41.7194 -82.1856 125° Southeast 486 559 29,000 -50 Level Cleveland Center
Wed 09:31:15 PM 41.6503 -82.0558 125° Southeast 481 554 28,900 -550 Descending Cleveland Center
Wed 09:32:15 PM 41.5647 -81.8986 126° Southeast 481 554 27,900 -1,050 Descending Cleveland Center
Wed 09:33:15 PM 41.4892 -81.7583 126° Southeast 475 547 26,800 -1,600 Descending Cleveland Center
Wed 09:34:15 PM 41.4153 -81.6158 125° Southeast 470 541 24,700 -1,650 Descending Cleveland Center
Wed 09:35:15 PM 41.3539 -81.4986 125° Southeast 461 531 23,500 -1,550 Descending Cleveland Center
Wed 09:36:15 PM 41.2797 -81.3706 128° Southeast 448 516 21,600 -1,950 Descending Cleveland Center
Wed 09:37:15 PM 41.2097 -81.2483 127° Southeast 436 502 19,600 -1,900 Descending Cleveland Center
Wed 09:38:15 PM 41.1436 -81.1264 126° Southeast 418 481 17,800 -1,950 Descending Cleveland Center
Wed 09:39:15 PM 41.0817 -81.0072 125° Southeast 406 467 15,700 -2,050 Descending Cleveland Center
Wed 09:40:15 PM 41.0214 -80.8969 126° Southeast 388 447 13,700 -1,950 Descending Cleveland Center
Wed 09:41:15 PM 40.9592 -80.7894 127° Southeast 382 440 11,800 -1,750 Descending Cleveland Center
Wed 09:42:15 PM 40.8989 -80.6931 130° Southeast 361 415 10,200 -1,200 Descending Cleveland Center
Wed 09:43:15 PM 40.8197 -80.6325 150° Southeast 289 333 9,400 -950 Descending Cleveland Center
Wed 09:44:15 PM 40.7531 -80.5831 151° Southeast 289 333 8,300 -1,650 Descending Cleveland Center
Wed 09:45:15 PM 40.6883 -80.5367 151° Southeast 268 308 6,100 -1,916 Descending Cleveland Center
Wed 09:46:14 PM 40.6300 -80.4872 147° Southeast 263 303 4,500 -1,300 Descending Cleveland Center
Wed 09:47:15 PM 40.5819 -80.4464 147° Southeast 251 289 3,500 -744 Descending Cleveland Center
Wed 09:48:15 PM 40.5361 -80.4083 148° Southeast 221 254 3,000 -400 Descending Cleveland Center
Wed 09:49:15 PM 40.5047 -80.3700 137° Southeast 185 213 2,700 -300 Descending Cleveland Center
Wed 09:51:00 PM 40.4915 -80.2329 143° Southeast  Level Estimated
Wed 09:58:00 PM 40.4915 -80.2329 143° Southeast  Level Estimated
Wed 09:59:00 PM 40.4915 -80.2329 143° Southeast  Level Estimated

Login

Don't have an account? Register now (free) for customized features, flight alerts, and more!